Time;durP1;ratioP1;P1;durP2;ratioP2;P2;SDS_P1;SDS_P2;PMS_P1;PMS_P2;Temp;Humidity;BMP_temperature;BMP_pressure;BME280_temperature;BME280_humidity;BME280_pressure;Samples;Min_cycle;Max_cycle;Signal;HPM_P1;HPM_P2
2022/04/12 00:02:14;;;;;;;34;42.7;;;;;;;4;74.8;99040;;;;
2022/04/12 00:13:14;;;;;;;34;42.7;;;;;;;4;75.1;99050;;;;
2022/04/12 00:24:14;;;;;;;34;42.7;;;;;;;3.8;76.7;99040;;;;
2022/04/12 00:34:14;;;;;;;32.8;44;;;;;;;3.9;75.4;99030;;;;
2022/04/12 00:44:14;;;;;;;32.8;44;;;;;;;3.9;74.4;99020;;;;
2022/04/12 00:55:14;;;;;;;27.2;33.4;;;;;;;3.8;73.7;99020;;;;
2022/04/12 01:06:14;;;;;;;27.2;33.4;;;;;;;3.8;73.7;99020;;;;
2022/04/12 01:16:15;;;;;;;27.2;33.4;;;;;;;3.6;73.9;99030;;;;
2022/04/12 01:26:14;;;;;;;22.9;28.4;;;;;;;3.6;73.8;99020;;;;
2022/04/12 01:37:14;;;;;;;22.9;28.4;;;;;;;3.4;74;99020;;;;
2022/04/12 01:47:15;;;;;;;22.9;28.4;;;;;;;3.6;72.5;99020;;;;
2022/04/12 01:58:14;;;;;;;20;26.7;;;;;;;3.6;72.7;99030;;;;
2022/04/12 02:09:14;;;;;;;20;26.7;;;;;;;3.6;73.7;99050;;;;
2022/04/12 02:19:14;;;;;;;20;26.7;;;;;;;3.4;75.3;99050;;;;
2022/04/12 02:30:14;;;;;;;21.6;27.5;;;;;;;3.4;75.4;99050;;;;
2022/04/12 02:40:14;;;;;;;21.6;27.5;;;;;;;3.5;74.7;99060;;;;
2022/04/12 02:50:14;;;;;;;21.6;27.5;;;;;;;3.4;75.6;99070;;;;
2022/04/12 03:01:14;;;;;;;25.1;29.9;;;;;;;3.2;76.8;99070;;;;
2022/04/12 03:11:14;;;;;;;25.1;29.9;;;;;;;3.2;77.3;99080;;;;
2022/04/12 03:21:14;;;;;;;25.1;29.9;;;;;;;3.2;77.4;99080;;;;
2022/04/12 03:31:14;;;;;;;29.7;37.1;;;;;;;3.1;77.3;99080;;;;
2022/04/12 03:42:16;;;;;;;29.7;37.1;;;;;;;3;77.5;99080;;;;
2022/04/12 03:53:14;;;;;;;29.7;37.1;;;;;;;2.8;76.9;99080;;;;
2022/04/12 04:03:14;;;;;;;30.9;41.3;;;;;;;2.7;76.6;99080;;;;
2022/04/12 04:14:15;;;;;;;30.9;41.3;;;;;;;2.5;77.1;99080;;;;
2022/04/12 04:25:14;;;;;;;24.9;31.5;;;;;;;2.3;78.5;99090;;;;
2022/04/12 04:35:14;;;;;;;24.9;31.5;;;;;;;2.1;78.1;99100;;;;
2022/04/12 04:46:14;;;;;;;24.9;31.5;;;;;;;2.2;78;99110;;;;
2022/04/12 04:56:14;;;;;;;19.2;24.9;;;;;;;2.4;77;99110;;;;
2022/04/12 05:07:15;;;;;;;19.2;24.9;;;;;;;2.7;76.4;99120;;;;
2022/04/12 05:17:14;;;;;;;19.2;24.9;;;;;;;3.2;77.4;99140;;;;
2022/04/12 05:28:14;;;;;;;26.9;37.2;;;;;;;3.7;76.1;99150;;;;
2022/04/12 05:39:14;;;;;;;26.9;37.2;;;;;;;4.5;74.4;99150;;;;
2022/04/12 05:49:14;;;;;;;26.9;37.2;;;;;;;5.4;71.1;99160;;;;
2022/04/12 05:59:14;;;;;;;27.8;36.8;;;;;;;6.1;66;99160;;;;
2022/04/12 06:09:14;;;;;;;27.8;36.8;;;;;;;6.4;61.7;99160;;;;
2022/04/12 06:19:14;;;;;;;27.8;36.8;;;;;;;6.4;62;99170;;;;
2022/04/12 06:30:14;;;;;;;12.8;17.4;;;;;;;6.7;63.6;99190;;;;
2022/04/12 06:40:15;;;;;;;12.8;17.4;;;;;;;7.2;60;99190;;;;
2022/04/12 06:51:14;;;;;;;12.8;17.4;;;;;;;7.5;57;99200;;;;
2022/04/12 07:01:14;;;;;;;9.9;12.4;;;;;;;7.9;55.3;99190;;;;
2022/04/12 07:12:14;;;;;;;9.9;12.4;;;;;;;8.1;52.4;99200;;;;
2022/04/12 07:23:14;;;;;;;9.8;14.8;;;;;;;8.3;52.6;99200;;;;
2022/04/12 07:34:14;;;;;;;9.8;14.8;;;;;;;8.6;52.8;99200;;;;
2022/04/12 07:44:14;;;;;;;9.8;14.8;;;;;;;9;48.6;99200;;;;
2022/04/12 07:55:14;;;;;;;8.6;12.8;;;;;;;9.5;46.8;99210;;;;
2022/04/12 08:05:14;;;;;;;8.6;12.8;;;;;;;9.6;46.4;99210;;;;
2022/04/12 08:16:15;;;;;;;8.6;12.8;;;;;;;9.9;45.1;99220;;;;
2022/04/12 08:26:15;;;;;;;6.3;11.3;;;;;;;10.1;45.2;99220;;;;
2022/04/12 08:36:16;;;;;;;6.3;11.3;;;;;;;10.5;45.5;99210;;;;
2022/04/12 08:47:14;;;;;;;6.3;11.3;;;;;;;10.5;41.4;99210;;;;
2022/04/12 08:58:14;;;;;;;4.9;9.9;;;;;;;11.2;39.6;99210;;;;
2022/04/12 09:08:14;;;;;;;4.9;9.9;;;;;;;11.2;42.4;99210;;;;
2022/04/12 09:19:14;;;;;;;4.9;9.9;;;;;;;11.7;41.2;99200;;;;
2022/04/12 09:29:15;;;;;;;6.1;9.2;;;;;;;11.8;41.4;99210;;;;
2022/04/12 09:40:14;;;;;;;6.1;9.2;;;;;;;12.6;39.6;99200;;;;
2022/04/12 09:50:14;;;;;;;6.1;9.2;;;;;;;12.6;40.5;99200;;;;
2022/04/12 10:00:14;;;;;;;5.4;7.9;;;;;;;12.6;39.2;99200;;;;
2022/04/12 10:10:19;;;;;;;5.4;7.9;;;;;;;12.7;40;99190;;;;
2022/04/12 10:20:14;;;;;;;5.4;7.9;;;;;;;13.5;37.7;99180;;;;
2022/04/12 10:30:14;;;;;;;5.2;8.8;;;;;;;13.5;36.6;99170;;;;
2022/04/12 10:40:14;;;;;;;5.2;8.8;;;;;;;13.4;36.3;99160;;;;
2022/04/12 10:50:14;;;;;;;5.2;8.8;;;;;;;13.5;38;99160;;;;
2022/04/12 11:01:14;;;;;;;4.2;6.6;;;;;;;13.3;37.2;99160;;;;
2022/04/12 11:11:14;;;;;;;4.2;6.6;;;;;;;13.3;38.1;99150;;;;
2022/04/12 11:22:14;;;;;;;4.2;6.6;;;;;;;13.1;36.3;99140;;;;
2022/04/12 11:33:14;;;;;;;5;7.6;;;;;;;13.3;36.3;99150;;;;
2022/04/12 11:43:14;;;;;;;5;7.6;;;;;;;13.2;34.5;99130;;;;
2022/04/12 11:53:14;;;;;;;5.1;12.5;;;;;;;13.4;39.5;99130;;;;
2022/04/12 12:03:15;;;;;;;5.1;12.5;;;;;;;13.3;36.6;99130;;;;
2022/04/12 12:13:15;;;;;;;5.1;12.5;;;;;;;13.3;36.8;99120;;;;
2022/04/12 12:24:14;;;;;;;5.2;10.3;;;;;;;13.6;35;99120;;;;
2022/04/12 12:34:14;;;;;;;5.2;10.3;;;;;;;13.6;35.4;99110;;;;
2022/04/12 12:45:14;;;;;;;5.2;10.3;;;;;;;13.5;35.3;99110;;;;
2022/04/12 12:56:15;;;;;;;5.5;11.1;;;;;;;13.8;34.2;99090;;;;
2022/04/12 13:06:14;;;;;;;5.5;11.1;;;;;;;14;34.4;99100;;;;
2022/04/12 13:16:14;;;;;;;5.5;11.1;;;;;;;13.6;33.4;99080;;;;
2022/04/12 13:27:14;;;;;;;5.6;9.1;;;;;;;13.8;34.3;99080;;;;
2022/04/12 13:38:14;;;;;;;5.6;9.1;;;;;;;13.9;34.2;99080;;;;
2022/04/12 13:49:14;;;;;;;5.6;9.1;;;;;;;13.8;33.4;99070;;;;
2022/04/12 13:59:14;;;;;;;22.4;27.6;;;;;;;14.1;32.9;99070;;;;
2022/04/12 14:10:14;;;;;;;22.4;27.6;;;;;;;14.4;34;99070;;;;
2022/04/12 14:20:14;;;;;;;22.4;27.6;;;;;;;14.7;32.2;99070;;;;
2022/04/12 14:31:14;;;;;;;7.6;13.1;;;;;;;14.6;32;99070;;;;
2022/04/12 14:41:14;;;;;;;7.6;13.1;;;;;;;14.6;32.2;99070;;;;
2022/04/12 14:51:14;;;;;;;7.6;13.1;;;;;;;14.7;32.9;99060;;;;
2022/04/12 15:02:14;;;;;;;4.7;7.7;;;;;;;15.2;31.9;99060;;;;
2022/04/12 15:12:15;;;;;;;4.7;7.7;;;;;;;18.2;26.9;99070;;;;
2022/04/12 15:23:14;;;;;;;5;9.4;;;;;;;19.9;25;99070;;;;
2022/04/12 15:34:16;;;;;;;5;9.4;;;;;;;19.6;24.6;99080;;;;
2022/04/12 15:45:15;;;;;;;5;9.4;;;;;;;20.1;23.2;99070;;;;
2022/04/12 15:55:16;;;;;;;5;8.3;;;;;;;21;25.8;99060;;;;
2022/04/12 16:06:16;;;;;;;5;8.3;;;;;;;19.2;29.9;99060;;;;
2022/04/12 16:16:14;;;;;;;5;8.3;;;;;;;16.8;34.6;99060;;;;
2022/04/12 16:27:14;;;;;;;7.7;12.4;;;;;;;15.5;34.8;99070;;;;
2022/04/12 16:37:14;;;;;;;7.7;12.4;;;;;;;13.9;38.9;99080;;;;
2022/04/12 16:47:14;;;;;;;7.7;12.4;;;;;;;12.9;40.7;99090;;;;
2022/04/12 16:57:14;;;;;;;9.4;15.5;;;;;;;12.2;42.8;99090;;;;
2022/04/12 17:08:14;;;;;;;9.4;15.5;;;;;;;11.5;44.8;99100;;;;
2022/04/12 17:18:14;;;;;;;9.4;15.5;;;;;;;10.8;46.4;99100;;;;
2022/04/12 17:29:14;;;;;;;8.6;13.8;;;;;;;10.3;47.6;99110;;;;
2022/04/12 17:39:15;;;;;;;8.6;13.8;;;;;;;9.9;48.7;99120;;;;
2022/04/12 17:50:14;;;;;;;8.6;13.8;;;;;;;9.4;50.7;99130;;;;
2022/04/12 18:00:14;;;;;;;19.8;26.3;;;;;;;9.1;51.5;99140;;;;
2022/04/12 18:10:14;;;;;;;19.8;26.3;;;;;;;8.7;52.7;99150;;;;
2022/04/12 18:20:15;;;;;;;19.8;26.3;;;;;;;8.6;52.5;99160;;;;
2022/04/12 18:31:15;;;;;;;15.2;20.6;;;;;;;8.4;52.9;99160;;;;
2022/04/12 18:42:15;;;;;;;15.2;20.6;;;;;;;8.1;53.7;99180;;;;
2022/04/12 18:52:15;;;;;;;15.2;20.6;;;;;;;7.9;53.5;99190;;;;
2022/04/12 19:03:15;;;;;;;14.7;19.7;;;;;;;7.6;54.3;99200;;;;
2022/04/12 19:13:15;;;;;;;14.7;19.7;;;;;;;7.2;54.5;99190;;;;
2022/04/12 19:24:17;;;;;;;18.6;23.8;;;;;;;7;55.4;99200;;;;
2022/04/12 19:34:15;;;;;;;18.6;23.8;;;;;;;6.9;56;99210;;;;
2022/04/12 19:45:15;;;;;;;18.6;23.8;;;;;;;6.7;56.3;99210;;;;
2022/04/12 19:55:16;;;;;;;18.3;22;;;;;;;6.5;56.4;99190;;;;
2022/04/12 20:05:18;;;;;;;18.3;22;;;;;;;6.2;57.2;99190;;;;
2022/04/12 20:15:15;;;;;;;18.3;22;;;;;;;6.1;57;99190;;;;
2022/04/12 20:26:15;;;;;;;15.1;21.1;;;;;;;5.9;57;99190;;;;
2022/04/12 20:36:15;;;;;;;15.1;21.1;;;;;;;5.8;57.6;99190;;;;
2022/04/12 20:46:15;;;;;;;15.1;21.1;;;;;;;5.7;57.4;99190;;;;
2022/04/12 20:56:15;;;;;;;12.9;17.1;;;;;;;5.7;57.7;99190;;;;
2022/04/12 21:06:15;;;;;;;12.9;17.1;;;;;;;5.6;57.6;99190;;;;
2022/04/12 21:17:15;;;;;;;12.9;17.1;;;;;;;5.5;57.6;99190;;;;
2022/04/12 21:28:15;;;;;;;10.9;17.2;;;;;;;5.4;57.9;99190;;;;
2022/04/12 21:39:15;;;;;;;10.9;17.2;;;;;;;5.3;58.3;99190;;;;
2022/04/12 21:49:15;;;;;;;10.9;17.2;;;;;;;5.1;58.7;99190;;;;
2022/04/12 22:00:15;;;;;;;12.8;15.9;;;;;;;4.8;59;99190;;;;
2022/04/12 22:10:15;;;;;;;12.8;15.9;;;;;;;4.4;60.7;99190;;;;
2022/04/12 22:20:15;;;;;;;12.8;15.9;;;;;;;3.8;61.7;99190;;;;
2022/04/12 22:31:15;;;;;;;13.9;18.2;;;;;;;3.5;64.2;99200;;;;
2022/04/12 22:42:15;;;;;;;13.9;18.2;;;;;;;3.2;64.6;99210;;;;
2022/04/12 22:52:15;;;;;;;23.1;34;;;;;;;3;67.4;99210;;;;
2022/04/12 23:03:15;;;;;;;23.1;34;;;;;;;2.8;66.5;99210;;;;
2022/04/12 23:14:15;;;;;;;23.1;34;;;;;;;2.5;66.3;99210;;;;
2022/04/12 23:24:15;;;;;;;15.6;18.4;;;;;;;2.5;68.2;99210;;;;
2022/04/12 23:35:15;;;;;;;15.6;18.4;;;;;;;2.1;67.9;99210;;;;
2022/04/12 23:46:15;;;;;;;15.6;18.4;;;;;;;1.9;68;99210;;;;
2022/04/12 23:56:15;;;;;;;15.9;25.4;;;;;;;1.8;68.1;99210;;;;
